Terminal Aerodrome Forecast
Issued by NWS Wilmington, OH

Current Version | Previous Version | Graphics & Text | Print | Product List | Glossary On
Versions: 1 2 3 4 5 6 7 8 9 10 11 12 13 14 15
304
FTUS41 KILN 211610 AAA
TAFDAY
TAF AMD
KDAY 211610Z 2116/2212 34007KT 4SM BR OVC007
     FM211800 33008KT P6SM BKN012
     FM211900 34010KT P6SM BKN200
     FM220000 34012KT P6SM BKN100
     FM220300 33012G22KT P6SM BKN100
     FM220800 02012G22KT P6SM SCT250=

USA.gov is the U.S. government's official web portal to all federal, state and local government web resources and services.